Strona główna
METAR-TAF:

METAR-TAF

Lotnisko :

Baza lotnicza Volkel

Uden, Holandia

Szerokość geograficzna: 51-39N, Długość geograficzna: 005-42E, wysokość: 22 m

Aktualna obserwacja pogody

Raport powstał 28 minut temu, godzina 02:25 UTC
Wiatr 4 kt od południowy zachód
Temperatura 15°C
Wilgotność 94%
Ciśnienie 1012 hPa
Widzialność 10 km lub więcej
Mało chmury na wysokości 5200 ft
Zachmurzenie całkowite na wysokości 12000 ft

METAR: EHVK 190225Z AUTO 23004KT 9999 FEW052 OVC120 15/14 Q1012 BLU

czas: 04:53 (02:53 UTC)

Prognoza

Raport powstał 2 godziny i 27 minut temu, godzina 00:26 UTC
Prognoza ważna od 19 godzina 01 UTC do 19 godzina 13 UTC
Wiatr 5 kt od zachodnio-południowy zachód
Widzialność 10 km lub więcej
Brak chmur poniżej 1500 m i brak chmur cumulonimbus

TAF: EHVK 190026Z 1901/1913 24005KT CAVOK

Obserwacja i prognoza pogody dla ponad 4000 lotnisk (raport METAR i TAF).

Dostępne stacje oznaczono żółtymi i czerwonymi punktami na mapie.

Najedź kursorem aby zobaczyć nazwę stacji.

Kliknij aby zobaczyć obserwacje i prognozy pogody.

Aby zmienić mapę: kliknij na zielony przycisk z czarnym krzyżykiem, aby powiększyć; na zielony przycisk z myślnikiem, aby pomniejszyć; na zielone strzałki, aby przejść do map sąsiednich.


METAR-TAF: